createdAt,value
2022-10-05T00:00:22.194Z,8.57
2022-10-05T00:03:14.980Z,7.40
2022-10-05T00:05:45.161Z,6.00
2022-10-05T00:10:44.444Z,6.78
2022-10-05T00:13:15.318Z,6.88
2022-10-05T00:15:44.537Z,6.45
2022-10-05T00:18:18.964Z,6.80
2022-10-05T00:20:49.079Z,5.85
2022-10-05T00:23:22.863Z,5.18
2022-10-05T00:25:51.275Z,5.60
2022-10-05T00:28:26.839Z,5.00
2022-10-05T00:30:59.422Z,5.60
2022-10-05T00:33:28.606Z,5.07
2022-10-05T00:35:58.754Z,5.32
2022-10-05T00:38:29.173Z,4.97
2022-10-05T00:41:17.871Z,5.05
2022-10-05T00:43:55.735Z,5.47
2022-10-05T00:46:33.204Z,5.28
2022-10-05T00:49:11.023Z,6.13
2022-10-05T00:51:41.555Z,5.63
2022-10-05T00:54:35.374Z,6.05
2022-10-05T00:57:25.049Z,5.88
2022-10-05T01:00:05.266Z,5.40
2022-10-05T01:02:50.492Z,6.07
2022-10-05T01:05:43.400Z,6.38
2022-10-05T01:08:16.935Z,7.00
2022-10-05T01:11:19.489Z,7.53
2022-10-05T01:14:05.957Z,7.28
2022-10-05T01:17:01.058Z,7.60
2022-10-05T01:19:50.682Z,8.10
2022-10-05T01:22:37.349Z,7.03
2022-10-05T01:25:21.163Z,6.57
2022-10-05T01:28:15.347Z,6.75
2022-10-05T01:30:51.302Z,6.00
2022-10-05T01:33:48.252Z,5.80
2022-10-05T01:36:28.565Z,6.65
2022-10-05T01:39:05.754Z,5.85
2022-10-05T01:42:00.914Z,5.68
2022-10-05T01:44:37.768Z,6.10
2022-10-05T01:47:30.437Z,5.85
2022-10-05T01:49:58.490Z,5.65
2022-10-05T01:52:53.598Z,5.80
2022-10-05T01:55:33.994Z,6.28
2022-10-05T01:58:21.582Z,5.95
2022-10-05T02:01:08.642Z,6.47
2022-10-05T02:03:47.510Z,6.47
2022-10-05T02:06:23.180Z,6.57
2022-10-05T02:09:07.485Z,6.43
2022-10-05T02:11:39.306Z,6.40
2022-10-05T02:14:16.686Z,5.85
2022-10-05T02:16:48.484Z,9.45
2022-10-05T02:19:25.611Z,34.15
2022-10-05T02:22:32.559Z,43.92
2022-10-05T02:25:07.087Z,47.47
2022-10-05T02:27:40.184Z,39.03
2022-10-05T02:30:14.133Z,20.05
2022-10-05T02:33:01.751Z,12.27
2022-10-05T02:35:29.692Z,9.68
2022-10-05T02:38:19.295Z,8.90
2022-10-05T02:40:58.725Z,8.50
2022-10-05T02:43:51.751Z,8.18
2022-10-05T02:46:45.474Z,8.63
2022-10-05T02:49:45.442Z,7.40
2022-10-05T02:52:19.182Z,7.50
2022-10-05T02:55:09.445Z,7.60
2022-10-05T02:57:40.442Z,8.52
2022-10-05T03:00:19.331Z,10.05
2022-10-05T03:03:08.907Z,9.15
2022-10-05T03:05:45.962Z,9.55
2022-10-05T03:08:26.807Z,9.30
2022-10-05T03:11:08.527Z,9.27
2022-10-05T03:13:53.259Z,8.98
2022-10-05T03:16:35.845Z,9.43
2022-10-05T03:19:03.909Z,9.00
2022-10-05T03:21:35.162Z,9.48
2022-10-05T03:24:22.015Z,9.07
2022-10-05T03:27:05.090Z,9.52
2022-10-05T03:29:55.772Z,9.52
2022-10-05T03:33:02.056Z,8.90
2022-10-05T03:35:59.267Z,9.30
2022-10-05T03:38:39.421Z,9.43
2022-10-05T03:41:27.643Z,10.30
2022-10-05T03:44:13.560Z,10.93
2022-10-05T03:46:59.738Z,10.52
2022-10-05T03:49:34.028Z,10.20
2022-10-05T03:52:10.076Z,10.60
2022-10-05T03:54:47.640Z,10.20
2022-10-05T03:57:21.530Z,11.00
2022-10-05T03:59:59.993Z,10.35
2022-10-05T04:02:40.326Z,9.63
2022-10-05T04:05:12.523Z,9.55
2022-10-05T04:07:46.953Z,10.10
2022-10-05T04:10:27.871Z,10.20
2022-10-05T04:13:04.942Z,9.95
2022-10-05T04:15:40.450Z,10.57
2022-10-05T04:18:32.913Z,9.50
2022-10-05T04:21:23.329Z,9.63
2022-10-05T04:26:50.949Z,9.30
2022-10-05T04:29:38.035Z,11.15
2022-10-05T04:32:20.245Z,10.20
2022-10-05T04:35:12.842Z,10.13
2022-10-05T04:37:53.902Z,10.98
2022-10-05T04:40:42.442Z,10.85
2022-10-05T04:43:34.615Z,9.35
2022-10-05T04:46:43.630Z,9.70
2022-10-05T04:49:27.456Z,9.82
2022-10-05T04:52:23.740Z,10.80
2022-10-05T04:54:56.052Z,10.73
2022-10-05T04:57:42.322Z,10.30
2022-10-05T05:00:33.521Z,9.88
2022-10-05T05:03:33.874Z,13.63
2022-10-05T05:06:17.756Z,10.53
2022-10-05T05:09:08.647Z,10.05
2022-10-05T05:12:19.786Z,10.57
2022-10-05T05:15:07.201Z,10.50
2022-10-05T05:18:02.700Z,10.88
2022-10-05T05:20:51.228Z,34.92
2022-10-05T05:23:31.481Z,35.15
2022-10-05T05:26:02.838Z,19.17
2022-10-05T05:28:44.759Z,19.02
2022-10-05T05:31:30.757Z,18.70
2022-10-05T05:34:23.883Z,13.02
2022-10-05T05:37:03.848Z,11.40
2022-10-05T05:39:45.651Z,12.68
2022-10-05T05:42:22.726Z,13.13
2022-10-05T05:44:57.550Z,12.00
2022-10-05T05:47:37.995Z,11.43
2022-10-05T05:50:41.949Z,12.13
2022-10-05T05:53:13.936Z,12.10
2022-10-05T05:55:50.358Z,11.30
2022-10-05T05:58:32.090Z,11.07
2022-10-05T06:01:33.175Z,11.85
2022-10-05T06:04:14.555Z,11.13
2022-10-05T06:06:49.246Z,10.85
2022-10-05T06:09:35.593Z,10.52
2022-10-05T06:12:32.123Z,9.98
2022-10-05T06:15:38.625Z,10.32
2022-10-05T06:18:14.432Z,10.15
2022-10-05T06:21:21.492Z,11.07
2022-10-05T06:24:10.222Z,14.70
2022-10-05T06:27:16.905Z,14.43
2022-10-05T06:29:57.149Z,16.40
2022-10-05T06:32:36.021Z,13.38
2022-10-05T06:35:10.523Z,12.82
2022-10-05T06:37:53.882Z,9.60
2022-10-05T06:40:45.895Z,10.57
2022-10-05T06:43:28.290Z,10.13
2022-10-05T06:46:29.186Z,9.85
2022-10-05T06:49:25.169Z,8.85
2022-10-05T06:52:49.573Z,9.07
2022-10-05T06:55:30.441Z,8.13
2022-10-05T06:58:27.907Z,9.10
2022-10-05T07:01:20.178Z,9.93
2022-10-05T07:04:36.819Z,10.55
2022-10-05T07:07:19.588Z,10.27
2022-10-05T07:09:53.549Z,9.95
2022-10-05T07:12:56.688Z,18.02
2022-10-05T07:15:40.540Z,9.85
2022-10-05T07:18:34.084Z,8.85
2022-10-05T07:21:23.804Z,7.90
2022-10-05T07:24:00.717Z,8.25
2022-10-05T07:26:42.658Z,7.78
2022-10-05T07:29:39.628Z,8.27
2022-10-05T07:32:39.270Z,7.85
2022-10-05T07:35:30.769Z,7.83
2022-10-05T07:38:12.103Z,9.02
2022-10-05T07:40:40.016Z,7.95
2022-10-05T07:43:57.860Z,8.45
2022-10-05T07:46:40.397Z,7.78
2022-10-05T07:49:42.835Z,7.60
2022-10-05T07:52:38.409Z,7.90
2022-10-05T07:55:41.166Z,7.50
2022-10-05T07:58:38.033Z,7.80
2022-10-05T08:01:06.289Z,6.82
2022-10-05T08:04:00.710Z,7.63
2022-10-05T08:06:38.698Z,7.70
2022-10-05T08:09:32.588Z,7.93
2022-10-05T08:12:13.659Z,7.72
2022-10-05T08:14:57.082Z,8.10
2022-10-05T08:17:31.961Z,7.70
2022-10-05T08:20:22.119Z,7.60
2022-10-05T08:23:05.121Z,7.75
2022-10-05T08:25:50.241Z,8.27
2022-10-05T08:28:30.986Z,8.40
2022-10-05T08:30:59.000Z,8.15
2022-10-05T08:33:36.056Z,7.47
2022-10-05T08:36:12.578Z,8.35
2022-10-05T08:38:42.186Z,7.97
2022-10-05T08:41:36.945Z,7.72
2022-10-05T08:44:43.744Z,7.28
2022-10-05T08:47:33.896Z,9.70
2022-10-05T08:50:29.695Z,9.45
2022-10-05T08:53:03.429Z,7.07
2022-10-05T08:55:52.091Z,7.20
2022-10-05T08:58:33.765Z,6.68
2022-10-05T09:01:04.655Z,7.05
2022-10-05T09:04:17.584Z,7.03
2022-10-05T09:07:03.447Z,6.93
2022-10-05T09:09:52.464Z,8.73
2022-10-05T09:12:29.692Z,6.97
2022-10-05T09:15:25.984Z,9.93
2022-10-05T09:18:01.115Z,9.48
2022-10-05T09:20:58.925Z,9.88
2022-10-05T09:23:38.557Z,7.75
2022-10-05T09:26:28.368Z,11.73
2022-10-05T09:29:04.752Z,7.38
2022-10-05T09:31:53.225Z,6.72
2022-10-05T09:34:30.702Z,7.72
2022-10-05T09:37:40.234Z,8.60
2022-10-05T09:43:10.329Z,6.57
2022-10-05T09:45:48.984Z,7.07
2022-10-05T09:48:35.883Z,8.25
2022-10-05T09:51:28.722Z,6.82
2022-10-05T09:54:29.595Z,7.07
2022-10-05T09:57:19.689Z,6.93
2022-10-05T10:00:23.617Z,7.25
2022-10-05T10:03:16.799Z,8.65
2022-10-05T10:06:20.518Z,8.95
2022-10-05T10:09:27.231Z,8.50
2022-10-05T10:12:01.619Z,6.65
2022-10-05T10:14:50.760Z,5.72
2022-10-05T10:17:28.242Z,5.77
2022-10-05T10:20:22.620Z,6.30
2022-10-05T10:23:06.212Z,5.30
2022-10-05T10:26:13.873Z,6.28
2022-10-05T10:29:30.755Z,6.20
2022-10-05T10:32:12.799Z,6.78
2022-10-05T10:35:14.658Z,5.95
2022-10-05T10:38:28.711Z,5.28
2022-10-05T10:41:15.489Z,5.68
2022-10-05T10:44:14.730Z,6.18
2022-10-05T10:47:18.229Z,6.73
2022-10-05T10:50:23.211Z,5.57
2022-10-05T10:53:21.970Z,5.85
2022-10-05T10:56:10.306Z,5.57
2022-10-05T10:58:41.285Z,6.07
2022-10-05T11:01:34.270Z,6.10
2022-10-05T11:04:08.198Z,5.22
2022-10-05T11:07:07.604Z,5.82
2022-10-05T11:09:38.541Z,5.67
2022-10-05T11:12:32.195Z,4.95
2022-10-05T11:15:29.826Z,6.60
2022-10-05T11:18:23.669Z,6.43
2022-10-05T11:21:00.646Z,5.70
2022-10-05T11:23:53.584Z,6.35
2022-10-05T11:26:58.059Z,5.32
2022-10-05T11:30:03.435Z,5.82
2022-10-05T11:32:34.818Z,5.20
2022-10-05T11:35:40.819Z,5.57
2022-10-05T11:38:59.980Z,5.38
2022-10-05T11:42:01.926Z,5.00
2022-10-05T11:44:39.366Z,5.78
2022-10-05T11:47:30.371Z,4.93
2022-10-05T11:50:22.840Z,5.22
2022-10-05T11:53:05.942Z,5.40
2022-10-05T11:56:04.884Z,5.80
2022-10-05T11:58:57.647Z,5.18
2022-10-05T12:01:37.072Z,5.38
2022-10-05T12:04:08.301Z,5.38
2022-10-05T12:06:39.474Z,5.43
2022-10-05T12:09:26.705Z,5.22
2022-10-05T12:12:14.013Z,4.93
2022-10-05T12:14:59.624Z,5.18
2022-10-05T12:17:42.206Z,6.22
2022-10-05T12:20:16.329Z,5.57
2022-10-05T12:23:13.316Z,6.63
2022-10-05T12:25:59.400Z,5.05
2022-10-05T12:28:47.605Z,5.28
2022-10-05T12:31:34.484Z,5.00
2022-10-05T12:34:30.064Z,5.30
2022-10-05T12:37:08.638Z,4.90
2022-10-05T12:39:58.342Z,4.72
2022-10-05T12:43:00.832Z,4.65
2022-10-05T12:45:53.187Z,5.47
2022-10-05T12:48:45.893Z,5.55
2022-10-05T12:51:43.440Z,4.78
2022-10-05T12:54:41.738Z,4.35
2022-10-05T12:57:39.260Z,4.95
2022-10-05T13:00:22.675Z,5.47
2022-10-05T13:03:01.954Z,4.80
2022-10-05T13:05:34.231Z,4.15
2022-10-05T13:08:20.921Z,4.70
2022-10-05T13:11:21.219Z,4.85
2022-10-05T13:13:52.546Z,5.00
2022-10-05T13:16:39.579Z,5.18
2022-10-05T13:19:31.497Z,4.70
2022-10-05T13:22:32.072Z,5.20
2022-10-05T13:25:22.524Z,7.32
2022-10-05T13:27:59.879Z,9.20
2022-10-05T13:30:29.519Z,5.18
2022-10-05T13:33:01.476Z,13.45
2022-10-05T13:35:35.491Z,9.13
2022-10-05T13:38:39.136Z,7.35
2022-10-05T13:41:24.717Z,6.15
2022-10-05T13:44:10.644Z,10.88
2022-10-05T13:46:43.028Z,16.08
2022-10-05T13:49:23.777Z,9.43
2022-10-05T13:55:00.295Z,7.80
2022-10-05T13:57:53.700Z,8.95
2022-10-05T14:00:25.636Z,15.80
2022-10-05T14:02:57.275Z,13.23
2022-10-05T14:05:28.105Z,15.70
2022-10-05T14:08:02.961Z,9.90
2022-10-05T14:10:34.491Z,7.00
2022-10-05T14:13:17.939Z,6.47
2022-10-05T14:16:13.198Z,8.25
2022-10-05T14:19:04.114Z,18.77
2022-10-05T14:21:46.721Z,9.57
2022-10-05T14:24:43.709Z,7.55
2022-10-05T14:27:27.099Z,6.95
2022-10-05T14:29:58.360Z,11.52
2022-10-05T14:33:04.207Z,10.07
2022-10-05T14:36:22.468Z,8.30
2022-10-05T14:41:37.797Z,7.30
2022-10-05T14:44:20.818Z,6.60
2022-10-05T14:47:12.568Z,6.53
2022-10-05T14:50:10.833Z,7.35
2022-10-05T14:53:00.974Z,7.32
2022-10-05T14:55:53.841Z,12.35
2022-10-05T14:58:50.876Z,9.18
2022-10-05T15:01:32.923Z,9.52
2022-10-05T15:04:31.368Z,10.43
2022-10-05T15:07:36.287Z,10.95
2022-10-05T15:10:31.056Z,12.80
2022-10-05T15:13:19.270Z,12.70
2022-10-05T15:15:56.573Z,9.05
2022-10-05T15:18:46.531Z,9.33
2022-10-05T15:21:49.191Z,7.10
2022-10-05T15:24:30.704Z,9.55
2022-10-05T15:27:05.530Z,8.18
2022-10-05T15:29:52.382Z,8.38
2022-10-05T15:32:26.612Z,10.47
2022-10-05T15:35:39.052Z,13.57
2022-10-05T15:38:21.392Z,10.18
2022-10-05T15:41:24.774Z,13.48
2022-10-05T15:44:06.532Z,8.52
2022-10-05T15:46:49.727Z,9.95
2022-10-05T15:49:26.919Z,10.13
2022-10-05T15:51:58.530Z,13.18
2022-10-05T15:55:06.319Z,8.77
2022-10-05T15:57:43.871Z,7.78
2022-10-05T16:00:18.903Z,7.75
2022-10-05T16:03:11.361Z,7.28
2022-10-05T16:06:09.310Z,7.43
2022-10-05T16:09:02.709Z,7.90
2022-10-05T16:12:02.488Z,7.47
2022-10-05T16:15:00.075Z,7.65
2022-10-05T16:17:37.478Z,8.30
2022-10-05T16:20:23.871Z,8.65
2022-10-05T16:23:07.392Z,11.05
2022-10-05T16:25:45.466Z,9.57
2022-10-05T16:28:20.200Z,10.32
2022-10-05T16:31:29.026Z,14.70
2022-10-05T16:34:24.183Z,12.55
2022-10-05T16:37:02.544Z,11.65
2022-10-05T16:40:11.042Z,14.82
2022-10-05T16:43:09.090Z,23.63
2022-10-05T16:45:58.200Z,22.13
2022-10-05T16:48:36.581Z,18.13
2022-10-05T16:51:42.918Z,13.57
2022-10-05T16:54:12.068Z,24.05
2022-10-05T16:57:06.229Z,20.52
2022-10-05T17:00:03.902Z,24.33
2022-10-05T17:02:47.867Z,12.65
2022-10-05T17:05:38.993Z,13.77
2022-10-05T17:08:37.100Z,12.43
2022-10-05T17:11:24.920Z,14.18
2022-10-05T17:14:24.688Z,15.35
2022-10-05T17:17:21.421Z,13.07
2022-10-05T17:20:15.807Z,15.10
2022-10-05T17:22:56.532Z,13.63
2022-10-05T17:25:54.742Z,14.35
2022-10-05T17:28:48.452Z,12.93
2022-10-05T17:31:18.385Z,15.85
2022-10-05T17:36:48.713Z,93.43
2022-10-05T17:39:22.796Z,29.98
2022-10-05T17:41:51.246Z,16.27
2022-10-05T17:44:25.044Z,22.92
2022-10-05T17:46:58.808Z,30.05
2022-10-05T17:49:46.994Z,24.33
2022-10-05T17:52:46.120Z,22.52
2022-10-05T17:55:28.280Z,24.60
2022-10-05T17:57:59.995Z,34.80
2022-10-05T18:00:40.945Z,47.40
2022-10-05T18:03:33.102Z,60.72
2022-10-05T18:06:35.668Z,65.40
2022-10-05T18:09:22.645Z,84.10
2022-10-05T18:12:19.596Z,74.03
2022-10-05T18:15:26.091Z,93.90
2022-10-05T18:18:19.970Z,103.05
2022-10-05T18:21:18.672Z,85.00
2022-10-05T18:23:52.976Z,65.75
2022-10-05T18:26:54.569Z,57.13
2022-10-05T18:30:12.281Z,49.78
2022-10-05T18:32:44.073Z,59.92
2022-10-05T18:35:20.288Z,59.08
2022-10-05T18:38:29.903Z,61.10
2022-10-05T18:43:35.356Z,48.75
2022-10-05T18:46:35.955Z,48.13
2022-10-05T18:49:50.393Z,48.80
2022-10-05T18:52:18.949Z,61.63
2022-10-05T18:54:56.156Z,57.80
2022-10-05T18:58:01.226Z,64.60
2022-10-05T19:00:51.522Z,47.10
2022-10-05T19:06:14.295Z,43.45
2022-10-05T19:09:14.559Z,55.45
2022-10-05T19:11:50.089Z,77.07
2022-10-05T19:14:32.183Z,78.43
2022-10-05T19:17:24.409Z,70.32
2022-10-05T19:20:04.174Z,67.97
2022-10-05T19:22:39.027Z,65.13
2022-10-05T19:25:37.009Z,55.72
2022-10-05T19:28:23.610Z,43.15
2022-10-05T19:31:22.068Z,51.53
2022-10-05T19:34:43.936Z,50.67
2022-10-05T19:37:42.878Z,71.82
2022-10-05T19:40:36.823Z,57.63
2022-10-05T19:43:26.981Z,35.75
2022-10-05T19:46:14.072Z,27.23
2022-10-05T19:48:51.921Z,33.75
2022-10-05T19:51:31.132Z,30.15
2022-10-05T19:54:25.429Z,27.58
2022-10-05T19:56:55.088Z,28.20
2022-10-05T19:59:29.948Z,30.98
2022-10-05T20:01:59.740Z,38.55
2022-10-05T20:04:43.279Z,37.20
2022-10-05T20:07:23.946Z,57.85
2022-10-05T20:10:25.077Z,42.33
2022-10-05T20:13:02.437Z,40.92
2022-10-05T20:15:52.735Z,32.67
2022-10-05T20:19:07.829Z,31.77
2022-10-05T20:21:51.710Z,32.42
2022-10-05T20:24:27.924Z,26.85
2022-10-05T20:27:08.809Z,25.80
2022-10-05T20:29:44.488Z,23.85
2022-10-05T20:32:18.489Z,23.85
2022-10-05T20:34:49.562Z,24.35
2022-10-05T20:37:20.373Z,25.10
2022-10-05T20:39:51.791Z,25.92
2022-10-05T20:42:24.017Z,20.13
2022-10-05T20:44:56.725Z,20.15
2022-10-05T20:47:26.759Z,19.40
2022-10-05T20:49:55.505Z,21.17
2022-10-05T20:52:24.069Z,21.35
2022-10-05T20:54:58.961Z,27.90
2022-10-05T20:57:27.005Z,23.40
2022-10-05T20:59:55.375Z,30.30
2022-10-05T21:02:23.748Z,23.65
2022-10-05T21:04:52.215Z,24.33
2022-10-05T21:07:21.837Z,22.88
2022-10-05T21:09:51.056Z,22.40
2022-10-05T21:12:19.519Z,26.55
2022-10-05T21:14:47.830Z,58.05
2022-10-05T21:17:15.878Z,22.95
2022-10-05T21:19:45.318Z,27.90
2022-10-05T21:22:15.364Z,96.30
2022-10-05T21:24:43.743Z,25.17
2022-10-05T21:27:12.529Z,23.98
2022-10-05T21:29:41.413Z,28.48
2022-10-05T21:32:11.763Z,23.77
2022-10-05T21:34:41.201Z,25.98
2022-10-05T21:37:09.876Z,32.85
2022-10-05T21:39:38.078Z,27.80
2022-10-05T21:42:06.199Z,27.20
2022-10-05T21:44:34.331Z,28.02
2022-10-05T21:47:02.480Z,26.08
2022-10-05T21:49:31.344Z,32.22
2022-10-05T21:52:01.190Z,31.77
2022-10-05T21:54:29.445Z,41.78
2022-10-05T21:57:00.140Z,30.08
2022-10-05T21:59:32.596Z,41.95
2022-10-05T22:02:00.928Z,31.27
2022-10-05T22:04:29.404Z,24.67
2022-10-05T22:06:57.673Z,26.85
2022-10-05T22:09:26.148Z,36.15
2022-10-05T22:11:55.025Z,21.00
2022-10-05T22:14:23.273Z,21.52
2022-10-05T22:16:51.658Z,24.67
2022-10-05T22:19:20.678Z,31.02
2022-10-05T22:21:48.804Z,40.17
2022-10-05T22:24:17.189Z,39.58
2022-10-05T22:26:48.677Z,24.38
2022-10-05T22:29:18.751Z,20.38
2022-10-05T22:31:49.012Z,20.00
2022-10-05T22:34:18.997Z,21.83
2022-10-05T22:36:47.685Z,22.67
2022-10-05T22:39:17.134Z,24.27
2022-10-05T22:41:45.245Z,28.65
2022-10-05T22:44:13.296Z,24.40
2022-10-05T22:46:41.566Z,23.42
2022-10-05T22:49:09.819Z,28.83
2022-10-05T22:51:37.759Z,20.70
2022-10-05T22:54:06.559Z,20.30
2022-10-05T22:56:34.492Z,28.63
2022-10-05T22:59:02.505Z,18.98
2022-10-05T23:01:30.702Z,36.58
2022-10-05T23:03:58.884Z,26.75
2022-10-05T23:06:26.910Z,28.60
2022-10-05T23:08:55.666Z,17.70
2022-10-05T23:11:25.937Z,55.95
2022-10-05T23:13:59.965Z,30.80
2022-10-05T23:16:29.120Z,43.78
2022-10-05T23:18:57.686Z,24.27
2022-10-05T23:21:28.454Z,16.80
2022-10-05T23:23:56.570Z,16.70
2022-10-05T23:26:25.854Z,30.48
2022-10-05T23:28:54.165Z,20.20
2022-10-05T23:31:25.653Z,15.48
2022-10-05T23:33:54.520Z,15.35
2022-10-05T23:36:27.942Z,22.73
2022-10-05T23:38:56.166Z,14.68
2022-10-05T23:41:25.070Z,12.82
2022-10-05T23:43:55.277Z,21.98
2022-10-05T23:46:23.760Z,14.40
2022-10-05T23:48:53.246Z,12.30
2022-10-05T23:51:21.225Z,12.77
2022-10-05T23:53:49.375Z,13.20
2022-10-05T23:56:17.282Z,15.82
2022-10-05T23:58:45.381Z,25.30
